• Join FlightAware (Why Join?)
  • Login
  • US Flag 
03:03PM EDT


 

Airport Tracker/Info


-or-


 

Live Flight TrackerFlight Track Log ✈ AAL832 ✈ 24-Jun-2013 ✈ KORD - KMIA

Flight Track Log - Related Links

Times and Time Zones

All times are in EDT time to prevent confusion due to time zone crossing. See the AAL832 flight status page for this flight to view local times or setup timezone preferences in your user account.

Time Position Orientation Groundspeed Altitude Reporting Facility
EDT Latitude Longitude Course Direction KTS MPH feet Rate Location/Type
05:37PM 41.9572 -87.9547 180° South 179 206 2,000  Level Chicago Center
05:38PM 41.9011 -87.9672 189° South 239 275 4,200 1,440 Climbing Chicago Center
05:39PM 41.6620 -87.7200 180° South  Level Estimated
05:39PM 41.8331 -87.9319 159° South 254 292 5,000  Level Chicago Center
05:40PM 41.5554 -87.6582 176° South  Level Estimated
05:40PM 41.7664 -87.8842 152° Southeast 264 304 6,500  Level Chicago Center
05:41PM 41.4487 -87.5966 180° South  Level Estimated
05:41PM 41.6728 -87.8783 177° South 275 316 10,100  Level Chicago Center
05:42PM 41.3420 -87.5352 180° South  Level Estimated
05:42PM 41.5917 -87.8778 180° South 289 333 12,600  Level Chicago Center
05:43PM 41.5008 -87.8775 180° South 319 367 14,100 1,620 Climbing Chicago Center
05:44PM 41.3936 -87.8786 180° South 373 429 16,000 2,100 Climbing Chicago Center
05:45PM 41.2833 -87.8758 179° South 388 447 18,500 2,220 Climbing Chicago Center
05:46PM 41.1717 -87.8731 179° South 396 456 20,600 1,860 Climbing Chicago Center
05:47PM 41.0558 -87.8689 178° South 411 473 22,400 1,500 Climbing Chicago Center
05:48PM 40.9389 -87.8614 177° South 419 482 23,700 1,560 Climbing Chicago Center
05:49PM 40.7917 -87.8567 179° South 438 504 25,700 1,800 Climbing Chicago Center
05:50PM 40.6694 -87.8525 179° South 441 507 27,400 1,440 Climbing Chicago Center
05:51PM 40.5483 -87.8222 169° South 448 516 28,700 1,080 Climbing Chicago Center
05:52PM 40.4258 -87.7878 168° South 454 522 29,700 1,080 Climbing Chicago Center
05:53PM 40.3014 -87.7553 169° South 459 528 31,000 1,260 Climbing Chicago Center
05:54PM 40.1839 -87.7225 168° South 455 524 32,400 1,680 Climbing Chicago Center
05:55PM 40.0833 -87.7178 178° South 449 517 33,900 1,560 Climbing Indianapolis Center
05:56PM 39.9681 -87.7439 190° South 427 491 35,100 1,020 Climbing Indianapolis Center
05:57PM 39.8539 -87.7731 191° South 422 486 36,100 840 Climbing Indianapolis Center
05:58PM 39.7403 -87.8031 191° South 420 483 36,900 420 Climbing Indianapolis Center
05:59PM 39.6042 -87.8397 192° South 418 481 37,000  Climbing Indianapolis Center
06:00PM 39.4881 -87.8156 171° South 424 488 37,000  Level Indianapolis Center
06:01PM 39.3744 -87.7736 164° South 426 490 37,000  Level Indianapolis Center
06:02PM 39.2464 -87.7308 165° South 427 491 37,000  Level Indianapolis Center
06:03PM 39.1331 -87.6903 164° South 423 487 37,000  Level Indianapolis Center
06:04PM 39.0192 -87.6506 165° South 423 487 37,000  Level Indianapolis Center
06:05PM 38.9050 -87.6106 165° South 424 488 37,000  Level Indianapolis Center
06:06PM 38.7908 -87.5708 165° South 425 489 37,000  Level Indianapolis Center
06:07PM 38.6767 -87.5322 165° South 424 488 37,000  Level Indianapolis Center
06:08PM 38.5619 -87.4922 165° South 427 491 37,000  Level Indianapolis Center
06:09PM 38.4250 -87.4456 165° South 426 490 37,000  Level Indianapolis Center
06:10PM 38.3108 -87.4061 165° South 429 494 37,000  Level Indianapolis Center
06:11PM 38.1964 -87.3681 165° South 429 494 37,000  Level Indianapolis Center
06:12PM 38.0811 -87.3286 165° South 432 497 37,000  Level Indianapolis Center
06:13PM 37.9672 -87.2883 164° South 429 494 37,000  Level Indianapolis Center
06:14PM 37.8525 -87.2508 166° South 426 490 37,000  Level Indianapolis Center
06:16PM 37.7158 -87.2036 165° South 426 490 37,000  Level Indianapolis Center
06:17PM 37.6025 -87.1644 165° South 423 487 37,000  Level Indianapolis Center
06:18PM 37.4864 -87.1286 166° South 416 479 37,000  Level Indianapolis Center
06:19PM 37.3722 -87.0903 165° South 420 483 37,000  Level Indianapolis Center
06:20PM 37.2583 -87.0525 165° South 420 483 37,000  Level Indianapolis Center
06:21PM 37.1447 -87.0142 165° South 419 482 37,000  Level Indianapolis Center
06:22PM 37.0294 -86.9758 165° South 423 487 37,000  Level Indianapolis Center
06:23PM 36.9133 -86.9375 165° South 428 493 37,000  Level Indianapolis Center
06:24PM 36.7731 -86.8911 165° South 424 488 37,000  Level Memphis Center
06:25PM 36.6553 -86.8522 165° South 429 494 37,000  Level Memphis Center
06:26PM 36.5394 -86.8133 165° South 429 494 37,000  Level Memphis Center
06:27PM 36.4350 -86.7381 150° Southeast 429 494 37,000  Level Memphis Center
06:28PM 36.3389 -86.6600 147° Southeast 449 517 37,000  Level Memphis Center
06:29PM 36.2386 -86.5822 148° Southeast 443 510 37,000  Level Memphis Center
06:30PM 36.1381 -86.4994 146° Southeast 437 503 37,000  Level Memphis Center
06:31PM 36.0289 -86.4069 146° Southeast 437 503 37,000  Level Memphis Center
06:33PM 35.8075 -86.2178 145° Southeast 425 489 37,000  Level Atlanta Center
06:34PM 35.7086 -86.1383 147° Southeast 440 506 37,000  Level Atlanta Center
06:35PM 35.6058 -86.0517 146° Southeast 440 506 37,000  Level Atlanta Center
06:36PM 35.5050 -85.9650 145° Southeast 440 506 37,000  Level Atlanta Center
06:37PM 35.4019 -85.8783 146° Southeast 440 506 37,000  Level Atlanta Center
06:38PM 35.3031 -85.7972 146° Southeast 432 497 37,000  Level Atlanta Center
06:39PM 35.2000 -85.7086 145° Southeast 438 504 37,000  Level Atlanta Center
06:40PM 35.0947 -85.6203 146° Southeast 445 512 37,000  Level Atlanta Center
06:41PM 34.9894 -85.5372 147° Southeast 450 518 37,000  Level Atlanta Center
06:42PM 34.8839 -85.4517 146° Southeast 456 525 37,000  Level Atlanta Center
06:43PM 34.7786 -85.3639 146° Southeast 456 525 37,000  Level Atlanta Center
06:44PM 34.6731 -85.2789 146° Southeast 456 525 37,000  Level Atlanta Center
06:45PM 34.5694 -85.1942 146° Southeast 456 525 37,000  Level Atlanta Center
06:46PM 34.4681 -85.1069 145° Southeast 456 525 37,000  Level Atlanta Center
06:47PM 34.3622 -85.0228 147° Southeast 456 525 37,000  Level Atlanta Center
06:48PM 34.2564 -84.9361 146° Southeast 461 531 37,000  Level Atlanta Center
06:49PM 34.1506 -84.8522 147° Southeast 461 531 37,000  Level Atlanta Center
06:50PM 34.0383 -84.7633 147° Southeast 466 536 37,000  Level Atlanta Center
06:51PM 33.9325 -84.6822 148° Southeast 466 536 37,000  Level Atlanta Center
06:52PM 33.8264 -84.5939 145° Southeast 466 536 37,000  Level Atlanta Center
06:53PM 33.7411 -84.5258 146° Southeast 461 531 37,000  Level Atlanta Center
06:54PM 33.6161 -84.4678 159° South 453 521 37,000  Level Atlanta Center
06:55PM 33.4806 -84.4125 161° South 462 532 37,000  Level Atlanta Center
06:56PM 33.3617 -84.3597 160° South 456 525 37,000  Level Atlanta Center
06:57PM 33.2533 -84.3144 161° South 456 525 37,000  Level Atlanta Center
06:58PM 33.1344 -84.2644 161° South 456 525 37,000  Level Atlanta Center
06:59PM 33.0156 -84.2147 161° South 456 525 37,000  Level Atlanta Center
07:00PM 32.8861 -84.1575 160° South 449 517 37,000  Level Atlanta Center
07:01PM 32.7672 -84.1056 160° South 449 517 37,000  Level Atlanta Center
07:02PM 32.6461 -84.0511 159° South 455 524 37,000  Level Atlanta Center
07:03PM 32.5211 -84.0461 178° South 455 524 37,000  Level Atlanta Center
07:04PM 32.3978 -84.0806 193° South 443 510 37,000  Level Atlanta Center
07:05PM 32.2767 -84.1100 192° South 443 510 37,000  Level Atlanta Center
07:06PM 32.1556 -84.1419 193° South 448 516 37,000  Level Atlanta Center
07:07PM 32.0344 -84.1736 192° South 448 516 37,000  Level Atlanta Center
07:08PM 31.9092 -84.2078 193° South 453 521 37,000  Level Atlanta Center
07:09PM 31.7461 -84.2167 183° South 455 524 37,000  Level Jacksonville Center
07:10PM 31.6192 -84.2003 174° South 444 511 37,000  Level Jacksonville Center
07:11PM 31.4961 -84.1692 168° South 450 518 37,000  Level Jacksonville Center
07:12PM 31.3733 -84.1336 166° South 455 524 37,000  Level Jacksonville Center
07:13PM 31.2569 -84.0811 159° South 455 524 37,000  Level Jacksonville Center
07:14PM 31.1342 -84.0308 161° South 455 524 37,000  Level Jacksonville Center
07:15PM 31.0136 -83.9786 160° South 461 531 37,000  Level Jacksonville Center
07:16PM 30.8950 -83.9289 160° South 461 531 37,000  Level Jacksonville Center
07:17PM 30.7722 -83.8767 160° South 461 531 37,000  Level Jacksonville Center
07:18PM 30.6536 -83.8294 161° South 461 531 37,000  Level Jacksonville Center
07:19PM 30.5494 -83.7850 160° South 455 524 37,000  Level Jacksonville Center
07:20PM 30.4286 -83.7358 161° South 450 518 37,000 -60 Level Jacksonville Center
07:21PM 30.3058 -83.6867 161° South 455 524 36,900  Descending Jacksonville Center
07:22PM 30.1872 -83.6350 159° South 461 531 37,000  Climbing Jacksonville Center
07:23PM 30.0600 -83.5861 162° South 466 536 37,000  Level Jacksonville Center
07:24PM 29.9392 -83.5375 161° South 466 536 37,000  Level Jacksonville Center
07:25PM 29.8164 -83.4864 160° South 466 536 37,000  Level Jacksonville Center
07:26PM 29.6933 -83.4378 161° South 461 531 37,000  Level Jacksonville Center
07:27PM 29.5725 -83.3892 161° South 461 531 37,000  Level Jacksonville Center
07:28PM 29.4514 -83.3408 161° South 461 531 37,000 -60 Level Jacksonville Center
07:29PM 29.3203 -83.2881 161° South 461 531 36,900 -60 Descending Jacksonville Center
07:30PM 29.1972 -83.2375 160° South 461 531 36,900  Level Jacksonville Center
07:31PM 29.0783 -83.1894 161° South 461 531 37,000  Climbing Jacksonville Center
07:32PM 28.9594 -83.1417 161° South 461 531 37,000  Level Jacksonville Center
07:33PM 28.8383 -83.0917 160° South 461 531 37,000  Level Jacksonville Center
07:34PM 28.7175 -83.0442 161° South 461 531 37,000  Level Jacksonville Center
07:35PM 28.5964 -82.9967 161° South 461 531 37,000 -60 Level Jacksonville Center
07:37PM 28.3583 -82.9161 163° South 456 525 36,900 -60 Descending Miami Center
07:38PM 28.2283 -82.8881 169° South 463 533 36,900  Level Miami Center
07:39PM 28.1047 -82.8508 165° South 468 539 37,000  Climbing Miami Center
07:40PM 27.9894 -82.7603 145° Southeast 458 527 37,000 -60 Level Miami Center
07:41PM 27.8847 -82.6678 142° Southeast 453 521 36,900 -60 Descending Miami Center
07:42PM 27.7842 -82.5783 142° Southeast 463 533 36,900 -420 Level Miami Center
07:43PM 27.6956 -82.4989 142° Southeast 472 543 36,100 -960 Descending Miami Center
07:44PM 27.5783 -82.3994 143° Southeast 472 543 35,000 -1,020 Descending Miami Center
07:45PM 27.4753 -82.3103 142° Southeast 478 550 34,100 -900 Descending Miami Center
07:46PM 27.3822 -82.2286 142° Southeast 473 544 33,200 -900 Descending Miami Center
07:47PM 27.2750 -82.1372 143° Southeast 473 544 32,300 -1,020 Descending Miami Center
07:48PM 27.1558 -82.0339 142° Southeast 479 551 31,200 -1,080 Descending Miami Center
07:49PM 27.0483 -81.9428 143° Southeast 484 557 30,200 -1,020 Descending Miami Center
07:50PM 26.9447 -81.8567 143° Southeast 484 557 29,200 -1,020 Descending Miami Center
07:51PM 26.8456 -81.7711 142° Southeast 474 545 28,200 -1,020 Descending Miami Center
07:52PM 26.7461 -81.6878 143° Southeast 461 531 27,200 -1,020 Descending Miami Center
07:53PM 26.6486 -81.6025 142° Southeast 455 524 26,200 -1,200 Descending Miami Center
07:54PM 26.5511 -81.5197 143° Southeast 449 517 24,900 -1,620 Descending Miami Center
07:55PM 26.4678 -81.4467 142° Southeast 440 506 23,000 -2,100 Descending Miami Center
07:56PM 26.3742 -81.3689 143° Southeast 435 501 20,800 -2,160 Descending Miami Center
07:57PM 26.2847 -81.2939 143° Southeast 419 482 18,700 -2,100 Descending Miami Center
07:58PM 26.1969 -81.2233 144° Southeast 407 468 16,600 -2,100 Descending Miami Center
07:59PM 26.1133 -81.1533 143° Southeast 388 447 14,500 -2,100 Descending Miami Center
08:00PM 26.0319 -81.0833 142° Southeast 383 441 12,400 -2,040 Descending Miami Center
08:01PM 25.9544 -81.0181 143° Southeast 372 428 10,500 -1,380 Descending Miami Center
08:02PM 25.8936 -80.9536 136° Southeast 304 350 9,900 -900 Descending Miami Center
08:03PM 25.8811 -80.8725 100° East 263 303 8,900 -1,140 Descending Miami Center
08:04PM 25.8792 -80.7894 91° East 266 306 7,600 -1,380 Descending Miami Center
08:05PM 25.8772 -80.7039 91° East 261 300 6,200 -1,140 Descending Miami Center
08:06PM 25.8772 -80.6253 90° East 253 291 5,300 -900 Descending Miami Center
08:07PM 25.8728 -80.5558 94° East 216 249 4,400 -1,020 Descending Miami Center
08:08PM 25.8744 -80.4914 88° East 201 231 3,300 -1,140 Descending Miami Center